Time;durP1;ratioP1;P1;durP2;ratioP2;P2;SDS_P1;SDS_P2;PMS_P1;PMS_P2;Temp;Humidity;BMP_temperature;BMP_pressure;BME280_temperature;BME280_humidity;BME280_pressure;Samples;Min_cycle;Max_cycle;Signal;HPM_P1;HPM_P2
2023/12/13 00:02:11;;;;;;;10.18;6.05;;;23.60;43.80;;;;;;6165149;28;80278;-61
2023/12/13 00:05:11;;;;;;;12.23;6.13;;;23.60;43.90;;;;;;6150369;28;81599;-60
2023/12/13 00:08:13;;;;;;;9.30;5.68;;;23.60;44.10;;;;;;6176638;28;80484;-62
2023/12/13 00:11:13;;;;;;;9.35;6.18;;;23.60;44.00;;;;;;6165263;28;80423;-63
2023/12/13 00:14:14;;;;;;;9.43;5.57;;;23.60;44.00;;;;;;6152043;28;80613;-60
2023/12/13 00:17:14;;;;;;;7.97;5.57;;;23.50;44.20;;;;;;6174351;28;81202;-62
2023/12/13 00:20:15;;;;;;;8.95;5.78;;;23.50;43.90;;;;;;6173957;28;80918;-60
2023/12/13 00:23:15;;;;;;;9.73;5.93;;;23.50;43.90;;;;;;6175193;28;80711;-61
2023/12/13 00:26:16;;;;;;;9.15;5.35;;;23.50;44.10;;;;;;6166044;28;80613;-61
2023/12/13 00:29:16;;;;;;;9.35;5.07;;;23.50;44.60;;;;;;6150207;28;80360;-61
2023/12/13 00:32:17;;;;;;;10.15;5.93;;;23.50;44.30;;;;;;6162750;28;89514;-60
2023/12/13 00:35:20;;;;;;;9.43;6.30;;;23.50;44.00;;;;;;6174745;28;80716;-61
2023/12/13 00:38:21;;;;;;;8.48;5.28;;;23.50;44.10;;;;;;6174427;28;81897;-60
2023/12/13 00:41:22;;;;;;;11.55;6.15;;;23.40;44.00;;;;;;6171127;28;80387;-60
2023/12/13 00:44:22;;;;;;;11.15;6.25;;;23.40;43.90;;;;;;6171818;28;80463;-61
2023/12/13 00:47:23;;;;;;;8.00;5.22;;;23.40;44.00;;;;;;6171310;28;81286;-60
2023/12/13 00:50:23;;;;;;;10.73;6.25;;;23.40;43.80;;;;;;6170907;28;80967;-61
2023/12/13 00:53:24;;;;;;;8.70;5.10;;;23.50;43.70;;;;;;6171268;28;80766;-62
2023/12/13 00:56:25;;;;;;;10.45;6.68;;;23.50;43.80;;;;;;6172846;28;81266;-64
2023/12/13 00:59:25;;;;;;;8.70;6.13;;;23.50;43.70;;;;;;6174751;28;80775;-64
2023/12/13 01:02:27;;;;;;;8.20;5.60;;;23.50;43.50;;;;;;6167574;28;80428;-64
2023/12/13 01:05:27;;;;;;;10.75;6.32;;;23.50;44.00;;;;;;6162622;28;84026;-65
2023/12/13 01:08:28;;;;;;;12.63;7.05;;;23.50;43.60;;;;;;6163958;28;80916;-64
2023/12/13 01:11:28;;;;;;;11.77;7.13;;;23.50;43.50;;;;;;6158176;28;81096;-64
2023/12/13 01:14:29;;;;;;;12.30;7.35;;;23.50;43.30;;;;;;6164683;28;81324;-60
2023/12/13 01:17:32;;;;;;;10.60;6.72;;;23.50;43.20;;;;;;6152626;28;81708;-60
2023/12/13 01:20:32;;;;;;;13.77;8.20;;;23.50;43.30;;;;;;6159434;28;80593;-61
2023/12/13 01:23:33;;;;;;;12.32;7.72;;;23.40;43.30;;;;;;6171886;28;81608;-60
2023/12/13 01:26:33;;;;;;;16.30;9.48;;;23.40;43.60;;;;;;6174484;28;80593;-61
2023/12/13 01:29:34;;;;;;;14.35;8.43;;;23.50;43.70;;;;;;6155484;28;80668;-60
2023/12/13 01:32:34;;;;;;;14.15;7.93;;;23.40;43.60;;;;;;6155485;28;80657;-66
2023/12/13 01:35:35;;;;;;;16.30;8.68;;;23.50;43.60;;;;;;6167979;28;80757;-65
2023/12/13 01:38:35;;;;;;;14.52;8.45;;;23.50;43.50;;;;;;6165132;28;80656;-65
2023/12/13 01:41:36;;;;;;;12.70;7.55;;;23.50;43.40;;;;;;6158351;28;80420;-65
2023/12/13 01:44:38;;;;;;;15.02;8.45;;;23.50;43.60;;;;;;6155997;28;80588;-66
2023/12/13 01:47:38;;;;;;;15.35;7.85;;;23.40;43.80;;;;;;6156147;28;81034;-64
2023/12/13 01:50:39;;;;;;;12.93;7.55;;;23.50;43.50;;;;;;6161297;28;81944;-61
2023/12/13 01:53:39;;;;;;;11.73;6.97;;;23.40;43.50;;;;;;6165700;28;81547;-61
2023/12/13 01:56:39;;;;;;;12.60;8.57;;;23.40;43.50;;;;;;6154980;28;82194;-61
2023/12/13 01:59:40;;;;;;;13.07;8.60;;;23.40;43.40;;;;;;6155425;28;81175;-61
2023/12/13 02:02:41;;;;;;;15.50;8.15;;;23.40;43.50;;;;;;6167049;28;82129;-61
2023/12/13 02:05:41;;;;;;;12.82;8.68;;;23.40;43.50;;;;;;6159493;28;80731;-61
2023/12/13 02:08:42;;;;;;;17.60;8.85;;;23.40;43.40;;;;;;6166702;28;80979;-72
2023/12/13 02:11:42;;;;;;;15.27;9.52;;;23.50;43.50;;;;;;6167651;28;81309;-71
2023/12/13 02:14:43;;;;;;;14.23;8.57;;;23.40;43.30;;;;;;6169715;28;81392;-71
2023/12/13 02:17:43;;;;;;;16.33;9.10;;;23.40;43.30;;;;;;6155632;28;80684;-69
2023/12/13 02:20:44;;;;;;;17.30;9.82;;;23.40;43.30;;;;;;6156537;28;80906;-70
2023/12/13 02:23:44;;;;;;;16.08;9.25;;;23.40;43.20;;;;;;6162015;28;80509;-70
2023/12/13 02:26:45;;;;;;;15.18;9.73;;;23.40;43.10;;;;;;6159277;28;80504;-70
2023/12/13 02:29:47;;;;;;;15.00;9.30;;;23.40;43.20;;;;;;6153447;28;80339;-73
2023/12/13 02:32:48;;;;;;;17.30;10.20;;;23.40;43.10;;;;;;6166561;28;80282;-72
2023/12/13 02:35:48;;;;;;;15.38;9.57;;;23.40;43.20;;;;;;6173023;28;83300;-73
2023/12/13 02:38:49;;;;;;;15.18;9.65;;;23.40;43.60;;;;;;6177621;28;81862;-72
2023/12/13 02:41:49;;;;;;;16.42;10.52;;;23.40;43.30;;;;;;6175546;28;80529;-71
2023/12/13 02:44:50;;;;;;;19.73;10.27;;;23.40;43.70;;;;;;6162558;28;84228;-71
2023/12/13 02:47:52;;;;;;;15.75;9.75;;;23.40;43.40;;;;;;6159126;28;83531;-70
2023/12/13 02:50:53;;;;;;;17.50;9.75;;;23.30;43.20;;;;;;6155422;28;82872;-72
2023/12/13 02:53:53;;;;;;;16.27;10.07;;;23.40;43.40;;;;;;6174109;28;81013;-72
2023/12/13 02:56:54;;;;;;;16.65;10.35;;;23.40;43.10;;;;;;6157371;28;83427;-72
2023/12/13 02:59:54;;;;;;;18.35;10.65;;;23.40;43.00;;;;;;6174606;28;84636;-70
2023/12/13 03:02:55;;;;;;;13.48;9.10;;;23.40;43.00;;;;;;6162799;28;83047;-74
2023/12/13 03:05:55;;;;;;;19.52;10.55;;;23.40;43.10;;;;;;6155482;28;83560;-60
2023/12/13 03:08:56;;;;;;;16.42;10.57;;;23.40;42.90;;;;;;6162125;28;83185;-60
2023/12/13 03:11:56;;;;;;;14.75;9.73;;;23.40;43.50;;;;;;6161258;28;83616;-60
2023/12/13 03:14:57;;;;;;;14.95;9.15;;;23.40;42.80;;;;;;6154349;28;83222;-60
2023/12/13 03:17:57;;;;;;;17.63;10.35;;;23.30;42.80;;;;;;6160935;28;80132;-61
2023/12/13 03:20:58;;;;;;;14.07;8.65;;;23.30;43.00;;;;;;6150386;28;83314;-61
2023/12/13 03:23:58;;;;;;;14.82;8.88;;;23.40;43.10;;;;;;6151929;28;84359;-60
2023/12/13 03:26:59;;;;;;;18.95;9.80;;;23.30;43.40;;;;;;6151870;28;80546;-60
2023/12/13 03:29:59;;;;;;;15.73;9.90;;;23.30;43.40;;;;;;6152797;28;80283;-61
2023/12/13 03:33:00;;;;;;;17.95;9.50;;;23.30;43.40;;;;;;6157630;28;82062;-61
2023/12/13 03:36:00;;;;;;;16.25;10.35;;;23.30;43.20;;;;;;6164543;28;80204;-62
2023/12/13 03:39:01;;;;;;;14.35;9.05;;;23.30;43.20;;;;;;6149313;28;83296;-62
2023/12/13 03:42:01;;;;;;;17.38;9.65;;;23.30;43.20;;;;;;6159451;28;83133;-62
2023/12/13 03:45:02;;;;;;;14.98;9.35;;;23.40;43.30;;;;;;6176441;28;80875;-62
2023/12/13 03:48:03;;;;;;;16.13;9.13;;;23.30;43.20;;;;;;6162121;28;82312;-61
2023/12/13 03:51:04;;;;;;;15.75;9.05;;;23.30;43.40;;;;;;6152222;28;80692;-60
2023/12/13 03:54:05;;;;;;;13.98;8.55;;;23.30;43.30;;;;;;6163961;28;80755;-61
2023/12/13 03:57:05;;;;;;;14.90;9.27;;;23.30;43.20;;;;;;6172316;28;81464;-61
2023/12/13 04:00:06;;;;;;;15.57;9.68;;;23.30;43.10;;;;;;6156589;28;80604;-72
2023/12/13 04:03:13;;;;;;;14.43;9.02;;;23.30;43.20;;;;;;6163981;28;80638;-70
2023/12/13 04:06:13;;;;;;;12.07;8.45;;;23.30;43.30;;;;;;6159525;28;81451;-73
2023/12/13 04:09:14;;;;;;;15.52;9.20;;;23.30;43.50;;;;;;6175775;28;80695;-74
2023/12/13 04:12:15;;;;;;;13.95;8.80;;;23.30;43.20;;;;;;6174792;28;82542;-74
2023/12/13 04:15:16;;;;;;;13.27;7.93;;;23.30;43.00;;;;;;6171869;28;81212;-69
2023/12/13 04:18:16;;;;;;;13.25;7.82;;;23.30;43.00;;;;;;6170119;28;80450;-67
2023/12/13 04:21:17;;;;;;;12.88;7.85;;;23.30;43.20;;;;;;6158875;28;88005;-59
2023/12/13 04:24:18;;;;;;;12.13;7.40;;;23.40;43.20;;;;;;6160121;28;80458;-60
2023/12/13 04:27:18;;;;;;;12.68;7.63;;;23.40;43.20;;;;;;6159572;28;80740;-64
2023/12/13 04:30:19;;;;;;;10.93;7.20;;;23.40;43.10;;;;;;6156450;28;80482;-63
2023/12/13 04:33:19;;;;;;;11.15;7.85;;;23.40;42.90;;;;;;6169651;28;80521;-60
2023/12/13 04:36:20;;;;;;;12.18;7.38;;;23.50;43.00;;;;;;6175646;28;80816;-67
2023/12/13 04:39:20;;;;;;;14.50;8.55;;;23.50;42.80;;;;;;6175273;28;80510;-67
2023/12/13 04:42:21;;;;;;;10.30;7.55;;;23.50;42.70;;;;;;6174532;28;81341;-66
2023/12/13 04:45:21;;;;;;;13.13;7.75;;;23.50;42.80;;;;;;6174496;28;80592;-65
2023/12/13 04:48:22;;;;;;;17.20;8.60;;;23.60;43.00;;;;;;6167628;28;80540;-65
2023/12/13 04:51:22;;;;;;;15.20;7.65;;;23.60;43.20;;;;;;6163912;28;81162;-60
2023/12/13 04:54:23;;;;;;;11.77;7.53;;;23.60;43.20;;;;;;6171354;28;82172;-61
2023/12/13 04:57:23;;;;;;;13.00;7.20;;;23.60;43.50;;;;;;6175877;28;80643;-60
2023/12/13 05:00:24;;;;;;;11.77;7.05;;;23.60;43.70;;;;;;6178552;28;81067;-60
2023/12/13 05:03:26;;;;;;;11.15;6.80;;;23.70;44.00;;;;;;6167836;28;82282;-62
2023/12/13 05:06:26;;;;;;;10.88;6.63;;;23.70;44.20;;;;;;6156017;28;79972;-64
2023/12/13 05:09:27;;;;;;;12.38;6.80;;;23.70;44.00;;;;;;6174788;28;86875;-63
2023/12/13 05:12:27;;;;;;;10.00;6.45;;;23.70;44.00;;;;;;6177702;28;81052;-69
2023/12/13 05:15:28;;;;;;;9.50;6.03;;;23.70;44.20;;;;;;6177491;28;80777;-63
2023/12/13 05:18:28;;;;;;;12.93;6.63;;;23.70;44.20;;;;;;6167350;28;80945;-64
2023/12/13 05:21:29;;;;;;;10.77;6.72;;;23.80;44.70;;;;;;6176457;28;84246;-60
2023/12/13 05:24:29;;;;;;;13.13;5.63;;;23.80;45.10;;;;;;6175357;28;80492;-64
2023/12/13 05:27:30;;;;;;;16.48;5.95;;;23.80;45.20;;;;;;6179527;28;81793;-64
2023/12/13 05:30:30;;;;;;;13.68;6.15;;;23.80;45.10;;;;;;6167975;28;80429;-59
2023/12/13 05:33:31;;;;;;;13.30;5.72;;;23.80;45.50;;;;;;6161579;28;81246;-66
2023/12/13 05:36:31;;;;;;;12.43;5.93;;;23.80;45.30;;;;;;6168596;28;80688;-63
2023/12/13 05:39:32;;;;;;;9.85;5.63;;;23.80;45.40;;;;;;6172068;28;82978;-61
2023/12/13 05:42:33;;;;;;;13.70;5.50;;;23.90;45.00;;;;;;6171152;28;80316;-62
2023/12/13 05:45:33;;;;;;;10.07;6.10;;;23.90;45.10;;;;;;6171405;28;80667;-63
2023/12/13 05:48:34;;;;;;;7.43;4.65;;;23.90;45.10;;;;;;6168856;28;80263;-62
2023/12/13 05:51:34;;;;;;;7.95;5.22;;;23.90;45.20;;;;;;6168931;28;80416;-63
2023/12/13 05:54:35;;;;;;;6.53;4.72;;;23.90;45.20;;;;;;6168939;28;80522;-62
2023/12/13 05:57:36;;;;;;;10.25;5.13;;;23.90;45.20;;;;;;6166519;28;80417;-62
2023/12/13 06:00:36;;;;;;;9.77;5.15;;;23.90;45.30;;;;;;6172948;28;80432;-63
2023/12/13 06:03:37;;;;;;;6.35;4.50;;;23.90;45.40;;;;;;6158828;28;82147;-65
2023/12/13 06:06:38;;;;;;;7.78;4.90;;;23.80;45.30;;;;;;6178799;28;80659;-63
2023/12/13 06:09:38;;;;;;;6.28;4.07;;;23.80;45.10;;;;;;6155156;28;80690;-63
2023/12/13 06:12:39;;;;;;;6.63;4.22;;;23.80;45.00;;;;;;6177812;28;80592;-63
2023/12/13 06:15:39;;;;;;;8.88;4.72;;;23.80;45.00;;;;;;6168454;28;81048;-61
2023/12/13 06:18:40;;;;;;;11.20;4.30;;;23.80;45.00;;;;;;6157752;28;82276;-64
2023/12/13 06:21:40;;;;;;;7.50;4.57;;;23.80;45.10;;;;;;6158740;28;81229;-64
2023/12/13 06:24:41;;;;;;;6.18;4.00;;;23.80;44.70;;;;;;6161763;28;81767;-63
2023/12/13 06:27:41;;;;;;;5.05;3.97;;;23.80;44.80;;;;;;6167436;28;80502;-61
2023/12/13 06:30:42;;;;;;;6.75;3.72;;;23.80;44.80;;;;;;6165254;28;81504;-62
2023/12/13 06:33:43;;;;;;;6.75;4.32;;;23.70;44.90;;;;;;6162810;28;80536;-61
2023/12/13 06:36:43;;;;;;;4.00;3.10;;;23.70;45.10;;;;;;6167846;28;81503;-60
2023/12/13 06:39:44;;;;;;;4.72;3.50;;;23.70;45.10;;;;;;6176221;28;83537;-60
2023/12/13 06:42:44;;;;;;;8.35;3.60;;;23.70;45.30;;;;;;6176146;28;81465;-62
2023/12/13 06:45:44;;;;;;;4.80;3.63;;;23.70;45.80;;;;;;6175921;28;80742;-61
2023/12/13 06:48:46;;;;;;;4.03;3.00;;;23.70;45.20;;;;;;6175523;28;80849;-62
2023/12/13 06:51:46;;;;;;;5.95;3.17;;;23.70;44.90;;;;;;6177271;28;80542;-62
2023/12/13 06:54:47;;;;;;;3.95;2.88;;;23.80;44.90;;;;;;6174797;28;80999;-62
2023/12/13 06:57:48;;;;;;;5.05;3.13;;;23.70;44.70;;;;;;6168596;28;80516;-61
2023/12/13 07:00:48;;;;;;;4.57;3.00;;;23.70;45.30;;;;;;6162441;28;80617;-61
2023/12/13 07:03:49;;;;;;;4.93;3.88;;;23.60;45.40;;;;;;6156052;28;80599;-56
2023/12/13 07:06:49;;;;;;;5.07;3.42;;;23.60;45.50;;;;;;6177251;28;81183;-58
2023/12/13 07:09:50;;;;;;;3.83;2.92;;;23.60;45.00;;;;;;6176379;28;80185;-60
2023/12/13 07:12:50;;;;;;;4.50;3.40;;;23.60;44.40;;;;;;6159222;28;80885;-62
2023/12/13 07:15:51;;;;;;;3.90;2.83;;;23.60;44.70;;;;;;6167769;28;81442;-62
2023/12/13 07:18:51;;;;;;;5.32;3.58;;;23.50;44.10;;;;;;6174578;28;82000;-61
2023/12/13 07:21:52;;;;;;;5.53;3.05;;;23.50;44.20;;;;;;6162788;28;80662;-61
2023/12/13 07:24:52;;;;;;;4.00;2.83;;;23.50;44.10;;;;;;6156563;28;87550;-61
2023/12/13 07:27:53;;;;;;;4.18;2.83;;;23.50;44.10;;;;;;6169925;28;81366;-61
2023/12/13 07:30:55;;;;;;;4.18;2.83;;;23.40;43.90;;;;;;6154875;28;80909;-61
2023/12/13 07:33:55;;;;;;;5.15;3.13;;;23.40;44.70;;;;;;6162037;28;81814;-60
2023/12/13 07:36:56;;;;;;;6.22;3.88;;;23.40;44.00;;;;;;6154174;28;80587;-62
2023/12/13 07:39:56;;;;;;;4.30;2.88;;;23.40;43.90;;;;;;6158978;28;80203;-62
2023/12/13 07:42:57;;;;;;;4.75;2.97;;;23.30;43.70;;;;;;6164495;28;80527;-60
2023/12/13 07:45:57;;;;;;;4.50;2.72;;;23.30;43.60;;;;;;6171763;28;81342;-62
2023/12/13 07:49:03;;;;;;;4.55;2.95;;;23.30;43.40;;;;;;6153035;28;80755;-62
2023/12/13 07:52:06;;;;;;;3.80;3.10;;;23.30;43.50;;;;;;6175650;28;80121;-63
2023/12/13 07:55:07;;;;;;;3.88;2.70;;;23.30;43.30;;;;;;6176426;28;80385;-62
2023/12/13 07:58:08;;;;;;;4.80;3.17;;;23.30;43.20;;;;;;6176011;28;80616;-62
2023/12/13 08:01:08;;;;;;;5.32;3.50;;;23.30;43.10;;;;;;6162781;28;80600;-61
2023/12/13 08:04:09;;;;;;;3.85;2.90;;;23.30;43.00;;;;;;6159767;28;81436;-60
2023/12/13 08:07:09;;;;;;;5.03;3.22;;;23.30;43.00;;;;;;6160457;28;80294;-60
2023/12/13 08:10:10;;;;;;;3.92;2.90;;;23.30;43.00;;;;;;6153014;28;83135;-62
2023/12/13 08:13:10;;;;;;;4.75;3.25;;;23.20;43.00;;;;;;6159156;28;80799;-61
2023/12/13 08:16:11;;;;;;;5.80;4.03;;;23.20;43.10;;;;;;6163128;28;81538;-60
2023/12/13 08:19:11;;;;;;;4.18;3.13;;;23.20;43.10;;;;;;6154094;28;81209;-60
2023/12/13 08:22:12;;;;;;;4.32;3.25;;;23.20;43.20;;;;;;6172629;28;80746;-60
2023/12/13 08:25:12;;;;;;;9.30;5.07;;;23.20;43.40;;;;;;6171342;28;83181;-61
2023/12/13 08:28:12;;;;;;;5.95;3.28;;;23.20;43.40;;;;;;6156110;28;80947;-63
2023/12/13 08:31:13;;;;;;;4.57;3.30;;;23.30;43.60;;;;;;6163878;28;83998;-62
2023/12/13 08:34:13;;;;;;;5.07;2.72;;;23.30;43.70;;;;;;6164185;28;80512;-62
2023/12/13 08:37:14;;;;;;;3.83;3.22;;;23.20;43.70;;;;;;6164892;28;81248;-61
2023/12/13 08:40:15;;;;;;;4.47;3.10;;;23.20;43.90;;;;;;6173928;28;82141;-61
2023/12/13 08:43:15;;;;;;;5.03;3.05;;;23.20;44.00;;;;;;6173804;28;82219;-61
2023/12/13 08:46:16;;;;;;;6.88;2.90;;;23.20;44.00;;;;;;6174638;28;82212;-61
2023/12/13 08:49:16;;;;;;;3.67;2.95;;;23.20;44.20;;;;;;6172958;28;81599;-61
2023/12/13 08:52:18;;;;;;;4.45;3.03;;;23.20;44.20;;;;;;6174669;28;80506;-62
2023/12/13 08:55:18;;;;;;;5.60;3.45;;;23.20;44.30;;;;;;6173596;28;80936;-62
2023/12/13 08:58:19;;;;;;;3.83;2.90;;;23.20;44.40;;;;;;6174968;28;80835;-62
2023/12/13 09:01:19;;;;;;;3.35;2.90;;;23.20;45.10;;;;;;6152927;28;80108;-62
2023/12/13 09:04:20;;;;;;;4.65;3.25;;;23.20;44.50;;;;;;6156969;28;81035;-62
2023/12/13 09:07:20;;;;;;;4.53;3.10;;;23.30;44.50;;;;;;6172177;28;81167;-61
2023/12/13 09:10:21;;;;;;;4.18;2.70;;;23.30;44.90;;;;;;6173101;28;81506;-62
2023/12/13 09:13:21;;;;;;;4.30;3.08;;;23.30;45.80;;;;;;6172522;28;80729;-61
2023/12/13 09:16:22;;;;;;;4.20;3.00;;;23.30;44.90;;;;;;6173677;28;80688;-64
2023/12/13 09:19:22;;;;;;;3.88;2.97;;;23.30;44.30;;;;;;6173746;28;86637;-62
2023/12/13 09:22:23;;;;;;;4.13;3.17;;;23.30;44.00;;;;;;6172373;28;80748;-62
2023/12/13 09:25:23;;;;;;;5.63;3.47;;;23.40;43.80;;;;;;6172375;28;80958;-64
2023/12/13 09:28:29;;;;;;;4.88;3.42;;;23.40;43.80;;;;;;6171062;28;80448;-62
2023/12/13 09:31:29;;;;;;;5.47;3.60;;;23.40;43.80;;;;;;6167120;28;80510;-62
2023/12/13 09:34:30;;;;;;;8.25;3.30;;;23.50;43.90;;;;;;6165180;28;80369;-62
2023/12/13 09:37:30;;;;;;;4.55;3.50;;;23.50;43.80;;;;;;6166126;28;80525;-61
2023/12/13 09:40:31;;;;;;;4.97;3.30;;;23.50;43.80;;;;;;6160112;28;81260;-62
2023/12/13 09:43:31;;;;;;;4.63;3.40;;;23.50;43.80;;;;;;6175383;28;80715;-61
2023/12/13 09:46:32;;;;;;;5.60;3.75;;;23.60;43.90;;;;;;6167835;28;80570;-61
2023/12/13 09:49:34;;;;;;;5.53;3.85;;;23.60;44.00;;;;;;6155006;28;80955;-62
2023/12/13 09:52:34;;;;;;;4.38;2.95;;;23.60;44.10;;;;;;6155404;28;81237;-61
2023/12/13 09:55:35;;;;;;;4.38;2.90;;;23.60;44.10;;;;;;6157785;28;80855;-63
2023/12/13 09:58:35;;;;;;;6.97;3.35;;;23.60;44.00;;;;;;6154595;28;80790;-63
2023/12/13 10:01:36;;;;;;;4.72;2.78;;;23.60;44.10;;;;;;6155488;28;81354;-63
2023/12/13 10:04:36;;;;;;;4.85;3.10;;;23.60;44.60;;;;;;6161758;28;80639;-63
2023/12/13 10:07:37;;;;;;;4.03;2.67;;;23.60;44.60;;;;;;6171767;28;80165;-63
2023/12/13 10:10:37;;;;;;;5.15;2.97;;;23.60;44.60;;;;;;6172678;28;81526;-62
2023/12/13 10:13:38;;;;;;;3.78;2.70;;;23.60;44.80;;;;;;6169628;28;80540;-61
2023/12/13 10:16:39;;;;;;;5.85;3.03;;;23.60;44.80;;;;;;6175290;28;81198;-62
2023/12/13 10:19:39;;;;;;;7.63;3.10;;;23.60;44.60;;;;;;6167190;28;80374;-63
2023/12/13 10:22:39;;;;;;;5.97;2.67;;;23.60;44.70;;;;;;6177328;28;80981;-62
2023/12/13 10:25:40;;;;;;;4.90;3.17;;;23.60;44.90;;;;;;6178164;28;80993;-61
2023/12/13 10:28:40;;;;;;;5.15;3.03;;;23.60;44.60;;;;;;6178036;28;80595;-61
2023/12/13 10:31:41;;;;;;;6.43;3.03;;;23.60;44.50;;;;;;6164775;28;81612;-63
2023/12/13 10:34:42;;;;;;;3.80;3.05;;;23.60;44.40;;;;;;6171450;28;83632;-61
2023/12/13 10:37:42;;;;;;;8.07;3.55;;;23.60;44.50;;;;;;6157375;28;81522;-63
2023/12/13 10:40:43;;;;;;;6.55;3.60;;;23.60;44.40;;;;;;6167328;28;82716;-63
2023/12/13 10:43:43;;;;;;;6.03;3.33;;;23.60;44.30;;;;;;6154598;28;81306;-62
2023/12/13 10:46:47;;;;;;;5.75;3.35;;;23.60;44.20;;;;;;6155318;28;80494;-62
2023/12/13 10:49:47;;;;;;;6.43;3.05;;;23.60;44.20;;;;;;6166854;28;80487;-62
2023/12/13 10:52:48;;;;;;;4.97;2.97;;;23.50;44.10;;;;;;6172728;28;83462;-62
2023/12/13 10:55:48;;;;;;;4.70;3.20;;;23.50;44.60;;;;;;6154364;28;80578;-61
2023/12/13 10:58:49;;;;;;;6.57;2.85;;;23.50;43.90;;;;;;6154621;28;81179;-61
2023/12/13 11:01:49;;;;;;;6.57;3.28;;;23.50;43.90;;;;;;6153352;28;80306;-62
2023/12/13 11:04:50;;;;;;;4.43;3.25;;;23.50;43.80;;;;;;6163260;28;80604;-63
2023/12/13 11:07:52;;;;;;;4.13;2.72;;;23.50;43.90;;;;;;6167635;28;80675;-62
2023/12/13 11:10:52;;;;;;;7.15;3.15;;;23.50;43.80;;;;;;6153261;28;80955;-62
2023/12/13 11:13:53;;;;;;;3.55;2.60;;;23.50;43.80;;;;;;6157908;28;80870;-63
2023/12/13 11:16:53;;;;;;;6.07;3.65;;;23.40;43.80;;;;;;6161613;28;80125;-64
2023/12/13 11:19:54;;;;;;;3.67;2.92;;;23.40;43.70;;;;;;6152617;28;80661;-62
2023/12/13 11:22:55;;;;;;;7.10;3.47;;;23.40;43.60;;;;;;6169537;28;80290;-63
2023/12/13 11:25:56;;;;;;;7.07;3.30;;;23.40;43.50;;;;;;6166147;28;81749;-63
2023/12/13 11:28:57;;;;;;;4.45;3.08;;;23.40;43.60;;;;;;6153458;28;80817;-63
2023/12/13 11:31:58;;;;;;;5.45;3.42;;;23.30;43.40;;;;;;6154223;28;80856;-63
2023/12/13 11:34:58;;;;;;;5.43;3.78;;;23.40;43.40;;;;;;6144853;28;81993;-62
2023/12/13 11:37:59;;;;;;;5.93;3.17;;;23.30;43.60;;;;;;6154505;28;82158;-62
2023/12/13 11:40:59;;;;;;;8.57;3.55;;;23.30;43.90;;;;;;6163329;28;85121;-69
2023/12/13 11:44:00;;;;;;;9.13;2.88;;;23.40;43.90;;;;;;6155449;28;80850;-63
2023/12/13 11:47:00;;;;;;;5.68;3.65;;;23.40;44.10;;;;;;6174144;28;83108;-69
2023/12/13 11:50:01;;;;;;;5.53;3.03;;;23.40;44.00;;;;;;6173063;28;83897;-72
2023/12/13 11:53:01;;;;;;;5.07;3.47;;;23.40;43.90;;;;;;6172220;28;80690;-72
2023/12/13 11:56:01;;;;;;;7.70;3.67;;;23.40;43.50;;;;;;6176034;28;80667;-67
2023/12/13 11:59:02;;;;;;;5.63;3.75;;;23.40;43.70;;;;;;6176512;28;80572;-61
2023/12/13 12:02:03;;;;;;;5.85;3.80;;;23.50;43.80;;;;;;6172135;28;81350;-60
2023/12/13 12:05:06;;;;;;;5.47;3.35;;;23.50;43.60;;;;;;6154466;28;81095;-61
2023/12/13 12:08:06;;;;;;;9.77;3.92;;;23.50;43.70;;;;;;6165762;28;82294;-61
2023/12/13 12:11:07;;;;;;;9.00;3.80;;;23.50;44.10;;;;;;6165616;28;80651;-62
2023/12/13 12:14:08;;;;;;;11.23;3.92;;;23.50;44.20;;;;;;6165589;28;80156;-60
2023/12/13 12:17:09;;;;;;;6.47;3.40;;;23.50;44.50;;;;;;6178493;28;81087;-61
2023/12/13 12:20:09;;;;;;;5.47;3.38;;;23.60;44.70;;;;;;6163826;28;81137;-61
2023/12/13 12:23:10;;;;;;;8.80;3.65;;;23.50;44.50;;;;;;6171143;28;81025;-62
2023/12/13 12:26:10;;;;;;;9.63;3.60;;;23.60;44.80;;;;;;6170913;28;81057;-61
2023/12/13 12:29:11;;;;;;;6.72;4.15;;;23.50;44.40;;;;;;6172768;28;80592;-61
2023/12/13 12:32:11;;;;;;;6.65;4.03;;;23.50;44.20;;;;;;6170991;28;81720;-61
2023/12/13 12:35:12;;;;;;;6.63;4.13;;;23.50;44.40;;;;;;6161273;28;82304;-62
2023/12/13 12:38:14;;;;;;;7.47;3.80;;;23.50;44.50;;;;;;6170788;28;80753;-60
2023/12/13 12:41:14;;;;;;;7.35;3.58;;;23.50;44.30;;;;;;6161457;28;82431;-60
2023/12/13 12:44:15;;;;;;;8.68;3.83;;;23.50;44.50;;;;;;6157740;28;80724;-63
2023/12/13 12:47:15;;;;;;;8.95;3.90;;;23.50;44.50;;;;;;6162170;28;80482;-62
2023/12/13 12:50:16;;;;;;;6.30;3.80;;;23.50;45.10;;;;;;6156063;28;80609;-62
2023/12/13 12:53:16;;;;;;;6.95;4.40;;;23.50;44.50;;;;;;6165369;28;83651;-67
2023/12/13 12:56:17;;;;;;;4.90;3.30;;;23.50;44.50;;;;;;6165924;28;81876;-66
2023/12/13 12:59:17;;;;;;;7.78;3.58;;;23.50;44.40;;;;;;6154844;28;80878;-67
2023/12/13 13:02:18;;;;;;;6.40;4.00;;;23.50;44.80;;;;;;6154818;28;80831;-66
2023/12/13 13:05:19;;;;;;;6.40;3.78;;;23.50;44.90;;;;;;6169089;28;80613;-70
2023/12/13 13:08:19;;;;;;;5.05;3.83;;;23.50;44.80;;;;;;6178161;28;80734;-70
2023/12/13 13:11:20;;;;;;;6.47;3.95;;;23.50;45.10;;;;;;6175019;28;80462;-60
2023/12/13 13:14:24;;;;;;;5.35;3.83;;;23.50;45.00;;;;;;6159413;28;81010;-61
2023/12/13 13:17:30;;;;;;;6.32;3.78;;;23.50;45.30;;;;;;6157349;28;81428;-61
2023/12/13 13:20:30;;;;;;;7.30;4.00;;;23.50;46.00;;;;;;6175476;28;80754;-60
2023/12/13 13:23:31;;;;;;;5.10;3.60;;;23.60;46.10;;;;;;6175010;28;84869;-61
2023/12/13 13:26:32;;;;;;;7.95;4.15;;;23.60;46.00;;;;;;6166662;28;81521;-59
2023/12/13 13:29:32;;;;;;;5.88;3.88;;;23.60;46.10;;;;;;6169479;28;82020;-73
2023/12/13 13:32:33;;;;;;;5.50;3.53;;;23.60;46.10;;;;;;6163709;28;80926;-72
2023/12/13 13:35:33;;;;;;;5.80;4.03;;;23.60;45.60;;;;;;6178881;28;80656;-73
2023/12/13 13:38:34;;;;;;;7.38;4.78;;;23.60;45.60;;;;;;6176301;28;83555;-74
2023/12/13 13:41:34;;;;;;;6.63;4.18;;;23.60;45.60;;;;;;6157382;28;81553;-73
2023/12/13 13:44:38;;;;;;;7.97;4.30;;;23.60;45.80;;;;;;6176003;28;80574;-70
2023/12/13 13:47:38;;;;;;;11.38;4.70;;;23.60;45.70;;;;;;6166094;28;80784;-61
2023/12/13 13:50:39;;;;;;;8.40;4.97;;;23.60;45.70;;;;;;6158157;28;80991;-60
2023/12/13 13:53:39;;;;;;;8.43;4.43;;;23.60;45.10;;;;;;6158127;28;81729;-61
2023/12/13 13:56:40;;;;;;;5.68;3.70;;;23.60;45.00;;;;;;6159510;28;82024;-60
2023/12/13 13:59:40;;;;;;;7.90;3.58;;;23.60;45.20;;;;;;6159293;28;81034;-61
2023/12/13 14:02:44;;;;;;;13.02;4.63;;;23.60;45.30;;;;;;6157811;28;81997;-59
2023/12/13 14:05:44;;;;;;;7.25;4.35;;;23.60;44.90;;;;;;6157036;28;83510;-72
2023/12/13 14:08:45;;;;;;;9.27;4.25;;;23.50;44.90;;;;;;6164898;28;81157;-79
2023/12/13 14:11:45;;;;;;;7.72;4.38;;;23.50;44.40;;;;;;6155857;28;80446;-68
2023/12/13 14:14:46;;;;;;;5.72;3.95;;;23.50;44.40;;;;;;6154173;28;81366;-77
2023/12/13 14:17:46;;;;;;;7.50;3.80;;;23.50;44.40;;;;;;6163665;28;83511;-70
2023/12/13 14:20:48;;;;;;;7.53;4.57;;;23.60;44.80;;;;;;6165593;28;81660;-68
2023/12/13 14:23:49;;;;;;;6.72;4.18;;;23.60;44.70;;;;;;6171548;28;80589;-76
2023/12/13 14:26:49;;;;;;;8.20;4.40;;;23.60;44.80;;;;;;6170459;28;80759;-73
2023/12/13 14:29:50;;;;;;;6.28;4.57;;;23.60;44.70;;;;;;6155696;28;80545;-73
2023/12/13 14:32:50;;;;;;;8.18;4.60;;;23.60;44.70;;;;;;6155689;28;80833;-64
2023/12/13 14:35:51;;;;;;;8.93;4.38;;;23.70;44.70;;;;;;6176614;28;80812;-73
2023/12/13 14:38:53;;;;;;;5.88;4.25;;;23.70;44.60;;;;;;6154169;28;80857;-69
2023/12/13 14:41:53;;;;;;;14.35;4.40;;;23.70;44.80;;;;;;6176357;28;80811;-70
2023/12/13 14:44:54;;;;;;;7.32;4.15;;;23.70;44.60;;;;;;6172855;28;82318;-69
2023/12/13 14:47:54;;;;;;;69.97;31.30;;;23.70;44.90;;;;;;6175509;28;80445;-67
2023/12/13 14:50:55;;;;;;;120.57;54.28;;;23.80;45.20;;;;;;6173666;28;83352;-65
2023/12/13 14:53:58;;;;;;;145.20;64.10;;;23.80;45.40;;;;;;6161544;28;83333;-72
2023/12/13 14:56:59;;;;;;;149.02;67.53;;;23.70;45.50;;;;;;6162309;28;84544;-66
2023/12/13 15:00:00;;;;;;;160.52;73.95;;;23.70;45.60;;;;;;6171488;28;83211;-63
2023/12/13 15:03:03;;;;;;;181.52;82.43;;;23.70;45.60;;;;;;6164338;28;83191;-68
2023/12/13 15:06:04;;;;;;;211.15;88.90;;;23.70;45.60;;;;;;6173621;28;83506;-69
2023/12/13 15:09:04;;;;;;;234.95;101.47;;;23.80;46.30;;;;;;6165197;28;83185;-68
2023/12/13 15:12:04;;;;;;;198.73;87.22;;;23.80;46.20;;;;;;6162720;28;85632;-68
2023/12/13 15:15:05;;;;;;;279.98;119.53;;;23.70;46.10;;;;;;6172970;28;84777;-70
2023/12/13 15:18:06;;;;;;;363.30;157.80;;;23.80;46.20;;;;;;6156592;28;86238;-70
2023/12/13 15:21:06;;;;;;;409.65;177.70;;;23.70;46.20;;;;;;6170755;28;85562;-60
2023/12/13 15:24:07;;;;;;;472.77;210.75;;;23.80;46.20;;;;;;6156322;28;86870;-61
2023/12/13 15:27:07;;;;;;;532.42;245.82;;;23.70;46.30;;;;;;6146076;28;87997;-61
2023/12/13 15:30:11;;;;;;;504.75;233.82;;;23.80;46.40;;;;;;6149894;28;86434;-60
2023/12/13 15:33:12;;;;;;;420.25;184.10;;;23.70;46.40;;;;;;6150610;28;86473;-59